Time;durP1;ratioP1;P1;durP2;ratioP2;P2;SDS_P1;SDS_P2;PMS_P1;PMS_P2;Temp;Humidity;BMP_temperature;BMP_pressure;BME280_temperature;BME280_humidity;BME280_pressure;Samples;Min_cycle;Max_cycle;Signal;HPM_P1;HPM_P2
2023/01/05 00:01:46;;;;;;;0.00;0.00;;;;;;;8.51;100.00;100789.56;6203922;23;20008;-75
2023/01/05 00:04:13;;;;;;;0.00;0.00;;;;;;;8.46;100.00;100792.19;6178795;23;20032;-73
2023/01/05 00:06:39;;;;;;;0.00;0.00;;;;;;;8.60;100.00;100810.97;6179417;23;20023;-75
2023/01/05 00:09:08;;;;;;;0.00;0.00;;;;;;;8.53;100.00;100803.78;6176873;23;20005;-75
2023/01/05 00:23:00;;;;;;;0.00;0.00;;;;;;;8.41;100.00;100800.25;6175196;23;20067;-75
2023/01/05 00:25:28;;;;;;;0.00;0.00;;;;;;;8.36;100.00;100794.69;6177964;23;20033;-76
2023/01/05 00:27:55;;;;;;;0.00;0.00;;;;;;;8.30;100.00;100787.47;6172170;23;20428;-76
2023/01/05 00:30:23;;;;;;;0.00;0.00;;;;;;;8.29;100.00;100799.44;6203914;23;20139;-76
2023/01/05 00:32:50;;;;;;;0.10;0.10;;;;;;;8.32;100.00;100809.84;6181388;23;20063;-78
2023/01/05 00:35:17;;;;;;;0.00;0.00;;;;;;;8.31;100.00;100806.31;6176279;23;20028;-77
2023/01/05 00:37:44;;;;;;;0.00;0.00;;;;;;;8.32;100.00;100807.97;6178517;23;20028;-77
2023/01/05 00:40:14;;;;;;;0.00;0.00;;;;;;;8.27;100.00;100793.41;6202002;23;20005;-76
2023/01/05 00:42:43;;;;;;;0.00;0.00;;;;;;;8.25;100.00;100787.34;6202421;23;20021;-77
2023/01/05 00:45:16;;;;;;;0.00;0.00;;;;;;;8.15;100.00;100794.25;6177334;23;20021;-77
2023/01/05 00:47:42;;;;;;;0.00;0.00;;;;;;;8.25;100.00;100806.44;6179475;23;20036;-77
2023/01/05 00:50:17;;;;;;;0.08;0.08;;;;;;;8.33;100.00;100825.13;6151974;23;20104;-77
2023/01/05 00:52:44;;;;;;;0.00;0.00;;;;;;;8.25;100.00;100796.38;6179668;23;20068;-76
2023/01/05 00:55:10;;;;;;;0.00;0.00;;;;;;;8.40;100.00;100814.94;6175289;23;20005;-76
2023/01/05 00:57:38;;;;;;;0.00;0.00;;;;;;;8.49;100.00;100818.94;6179029;23;20013;-74
2023/01/05 01:00:06;;;;;;;0.00;0.00;;;;;;;8.52;100.00;100801.28;6201030;23;20004;-76
2023/01/05 01:02:31;;;;;;;0.00;0.00;;;;;;;8.72;100.00;100817.22;6180197;23;20005;-76
2023/01/05 01:04:57;;;;;;;0.00;0.00;;;;;;;8.75;100.00;100814.00;6179365;23;20009;-75
2023/01/05 01:07:23;;;;;;;0.00;0.00;;;;;;;8.84;100.00;100817.97;6154246;23;20012;-76
2023/01/05 01:09:48;;;;;;;0.00;0.00;;;;;;;8.87;100.00;100828.38;6181482;23;20091;-77
2023/01/05 01:12:14;;;;;;;0.00;0.00;;;;;;;8.83;100.00;100808.13;6179025;23;20276;-76
2023/01/05 01:14:39;;;;;;;0.00;0.00;;;;;;;8.91;100.00;100823.28;6180869;23;20446;-76
2023/01/05 01:17:05;;;;;;;0.00;0.00;;;;;;;8.94;100.00;100816.53;6153621;23;20032;-78
2023/01/05 01:19:30;;;;;;;0.00;0.00;;;;;;;8.95;100.00;100826.34;6130373;23;20009;-77
2023/01/05 01:21:58;;;;;;;0.00;0.00;;;;;;;8.96;100.00;100822.53;6157416;23;20025;-76
2023/01/05 01:24:26;;;;;;;0.00;0.00;;;;;;;8.98;100.00;100820.38;6152374;23;20005;-76
2023/01/05 01:26:53;;;;;;;0.00;0.00;;;;;;;8.97;100.00;100829.66;6206578;23;20004;-76
2023/01/05 01:29:20;;;;;;;0.10;0.10;;;;;;;8.92;100.00;100827.66;6181520;23;20009;-77
2023/01/05 01:31:50;;;;;;;0.00;0.00;;;;;;;8.86;100.00;100834.94;6201141;23;20482;-76
2023/01/05 01:34:16;;;;;;;0.00;0.00;;;;;;;8.82;100.00;100839.22;6205874;23;20032;-77
2023/01/05 01:36:43;;;;;;;0.00;0.00;;;;;;;8.74;100.00;100834.16;6176147;23;20122;-77
2023/01/05 01:39:10;;;;;;;0.00;0.00;;;;;;;8.61;100.00;100821.63;6204861;23;20005;-77
2023/01/05 01:41:36;;;;;;;0.00;0.00;;;;;;;8.53;100.00;100831.03;6175595;23;20097;-77
2023/01/05 01:44:02;;;;;;;0.00;0.00;;;;;;;8.48;100.00;100833.63;6179470;23;20340;-75
2023/01/05 01:46:27;;;;;;;0.00;0.00;;;;;;;8.44;100.00;100832.50;6177075;23;20015;-77
2023/01/05 01:49:08;;;;;;;0.00;0.00;;;;;;;8.36;100.00;100835.56;6181793;23;20016;-76
2023/01/05 01:51:43;;;;;;;0.00;0.00;;;;;;;8.32;100.00;100839.81;6178420;23;20420;-77
2023/01/05 01:54:12;;;;;;;0.00;0.00;;;;;;;8.28;100.00;100838.66;6181632;23;20009;-73
2023/01/05 01:56:42;;;;;;;0.00;0.00;;;;;;;8.22;100.00;100845.91;6177244;23;20083;-75
2023/01/05 01:59:09;;;;;;;0.00;0.00;;;;;;;8.15;100.00;100846.03;6178705;23;19997;-74
2023/01/05 02:01:34;;;;;;;0.00;0.00;;;;;;;8.13;100.00;100840.00;6131154;23;20005;-75
2023/01/05 02:04:02;;;;;;;0.05;0.05;;;;;;;8.14;100.00;100844.34;6150620;23;20052;-76
2023/01/05 02:06:27;;;;;;;0.00;0.00;;;;;;;8.12;100.00;100851.97;6179046;23;20059;-75
2023/01/05 02:08:53;;;;;;;0.00;0.00;;;;;;;8.11;100.00;100854.91;6175308;23;20013;-77
2023/01/05 02:11:44;;;;;;;0.10;0.10;;;;;;;8.06;100.00;100852.06;6180415;23;20029;-76
2023/01/05 02:14:40;;;;;;;0.03;0.03;;;;;;;8.04;100.00;100853.16;6175475;23;20084;-77
2023/01/05 02:17:19;;;;;;;0.00;0.00;;;;;;;8.00;100.00;100843.81;6177252;23;20327;-76
2023/01/05 02:20:06;;;;;;;0.00;0.00;;;;;;;8.00;100.00;100859.28;6179801;23;20016;-77
2023/01/05 02:22:59;;;;;;;0.00;0.00;;;;;;;7.97;100.00;100843.44;6176783;23;20011;-76
2023/01/05 02:25:43;;;;;;;0.08;0.08;;;;;;;7.94;100.00;100850.19;6187753;23;20001;-77
2023/01/05 02:28:32;;;;;;;0.10;0.10;;;;;;;7.91;100.00;100849.84;6176568;23;20075;-75
2023/01/05 02:31:12;;;;;;;0.00;0.00;;;;;;;7.89;100.00;100852.00;6182175;23;20332;-76
2023/01/05 02:34:20;;;;;;;0.00;0.00;;;;;;;7.85;100.00;100857.88;6203254;23;20001;-76
2023/01/05 02:37:00;;;;;;;0.00;0.00;;;;;;;7.84;100.00;100855.41;6168453;23;20098;-75
2023/01/05 02:39:33;;;;;;;0.00;0.00;;;;;;;7.86;100.00;100870.44;6176877;23;20428;-75
2023/01/05 02:42:04;;;;;;;0.00;0.00;;;;;;;7.94;100.00;100876.59;6174986;23;20058;-75
2023/01/05 02:44:32;;;;;;;0.10;0.10;;;;;;;8.06;100.00;100880.16;6205165;23;20009;-76
2023/01/05 02:47:04;;;;;;;0.00;0.00;;;;;;;8.11;100.00;100877.53;6175589;23;20447;-74
2023/01/05 02:49:34;;;;;;;0.00;0.00;;;;;;;8.09;100.00;100878.81;6208081;23;20498;-75
2023/01/05 02:52:03;;;;;;;0.00;0.00;;;;;;;8.01;100.00;100882.75;6197829;23;20001;-76
2023/01/05 02:54:32;;;;;;;0.00;0.00;;;;;;;7.96;100.00;100874.47;6204102;23;20079;-74
2023/01/05 02:57:04;;;;;;;0.10;0.10;;;;;;;7.88;100.00;100872.91;6176362;23;20820;-74
2023/01/05 02:59:36;;;;;;;0.00;0.00;;;;;;;7.87;100.00;100882.19;6204568;23;20052;-75
2023/01/05 03:02:07;;;;;;;0.00;0.00;;;;;;;7.84;100.00;100880.75;6176852;23;20423;-77
2023/01/05 03:04:38;;;;;;;0.00;0.00;;;;;;;7.80;100.00;100882.28;6176901;23;20011;-75
2023/01/05 03:07:08;;;;;;;0.00;0.00;;;;;;;7.81;100.00;100883.09;6177462;23;20351;-74
2023/01/05 03:09:38;;;;;;;0.00;0.00;;;;;;;7.80;100.00;100878.75;6178055;23;20092;-75
2023/01/05 03:15:19;;;;;;;0.00;0.00;;;;;;;7.78;100.00;100870.81;6177932;23;20040;-76
2023/01/05 03:17:48;;;;;;;0.10;0.10;;;;;;;7.85;100.00;100885.09;6201082;23;20027;-76
2023/01/05 03:20:19;;;;;;;0.00;0.00;;;;;;;7.85;100.00;100874.22;6180312;23;20375;-75
2023/01/05 03:37:09;;;;;;;0.00;0.00;;;;;;;8.25;100.00;100877.28;6182277;23;20020;-75
2023/01/05 03:39:39;;;;;;;0.00;0.00;;;;;;;8.34;100.00;100870.41;6202487;23;20028;-75
2023/01/05 03:42:07;;;;;;;0.00;0.00;;;;;;;8.51;100.00;100881.41;6202692;23;20021;-75
2023/01/05 03:44:42;;;;;;;0.00;0.00;;;;;;;8.56;100.00;100873.34;6202844;23;20335;-75
2023/01/05 03:47:08;;;;;;;0.00;0.00;;;;;;;8.62;100.00;100871.53;6199389;23;20570;-75
2023/01/05 03:49:34;;;;;;;0.00;0.00;;;;;;;8.63;100.00;100873.19;6181321;23;20013;-75
2023/01/05 03:52:00;;;;;;;0.00;0.00;;;;;;;8.55;100.00;100866.22;6151155;23;20035;-75
2023/01/05 03:54:25;;;;;;;0.03;0.03;;;;;;;8.61;100.00;100870.69;6129194;23;20013;-75
2023/01/05 03:56:50;;;;;;;0.00;0.00;;;;;;;8.60;100.00;100868.22;6179038;23;20335;-73
2023/01/05 03:59:16;;;;;;;0.00;0.00;;;;;;;8.57;100.00;100864.06;6177821;23;20005;-77
2023/01/05 04:01:41;;;;;;;0.10;0.10;;;;;;;8.64;100.00;100863.94;6154006;23;20016;-75
2023/01/05 04:04:07;;;;;;;0.00;0.00;;;;;;;8.75;100.00;100873.97;6175034;23;20532;-75
2023/01/05 04:06:32;;;;;;;0.10;0.10;;;;;;;8.81;100.00;100875.72;6155776;23;20020;-74
2023/01/05 04:08:58;;;;;;;0.00;0.00;;;;;;;8.90;100.00;100868.81;6126337;23;20009;-76
2023/01/05 04:11:23;;;;;;;0.00;0.00;;;;;;;8.97;100.00;100878.75;6182078;23;20004;-76
2023/01/05 04:13:49;;;;;;;0.03;0.03;;;;;;;8.99;100.00;100882.88;6153741;23;20005;-76
2023/01/05 04:16:16;;;;;;;0.00;0.00;;;;;;;9.06;100.00;100877.28;6151609;23;20029;-78
2023/01/05 04:18:42;;;;;;;0.00;0.00;;;;;;;9.06;100.00;100871.84;6181110;23;20001;-78
2023/01/05 04:21:07;;;;;;;0.00;0.00;;;;;;;9.06;100.00;100877.28;6176073;23;20020;-77
2023/01/05 04:23:33;;;;;;;0.00;0.00;;;;;;;9.07;100.00;100868.03;6130697;23;20420;-77
2023/01/05 04:26:02;;;;;;;0.00;0.00;;;;;;;9.02;100.00;100867.94;6178112;23;20424;-79
2023/01/05 04:28:27;;;;;;;0.00;0.00;;;;;;;9.01;100.00;100874.44;6181177;23;20055;-77
2023/01/05 04:30:54;;;;;;;0.00;0.00;;;;;;;8.94;100.00;100873.81;6176587;23;20009;-77
2023/01/05 04:33:21;;;;;;;0.00;0.00;;;;;;;8.86;100.00;100875.84;6176599;23;20028;-76
2023/01/05 04:35:47;;;;;;;0.00;0.00;;;;;;;8.84;100.00;100875.25;6179576;23;20071;-76
2023/01/05 04:38:13;;;;;;;0.00;0.00;;;;;;;8.84;100.00;100879.88;6175105;23;20009;-77
2023/01/05 04:40:38;;;;;;;0.00;0.00;;;;;;;8.86;100.00;100878.56;6181082;23;20025;-77
2023/01/05 04:43:05;;;;;;;0.00;0.00;;;;;;;8.80;100.00;100874.06;6154364;23;20021;-76
2023/01/05 04:45:30;;;;;;;0.00;0.00;;;;;;;8.74;100.00;100875.03;6155126;23;20016;-77
2023/01/05 04:47:56;;;;;;;0.00;0.00;;;;;;;8.67;100.00;100874.34;6187646;23;20424;-78
2023/01/05 04:50:21;;;;;;;0.00;0.00;;;;;;;8.66;100.00;100875.41;6180629;23;19997;-77
2023/01/05 04:52:47;;;;;;;0.00;0.00;;;;;;;8.75;100.00;100882.16;6157972;23;20080;-76
2023/01/05 04:55:12;;;;;;;0.00;0.00;;;;;;;8.78;100.00;100875.41;6202858;23;20009;-76
2023/01/05 04:57:38;;;;;;;0.10;0.10;;;;;;;8.82;100.00;100877.41;6179017;23;20020;-76
2023/01/05 05:00:04;;;;;;;0.00;0.00;;;;;;;8.90;100.00;100876.16;6155104;23;20001;-78
2023/01/05 05:02:30;;;;;;;0.00;0.00;;;;;;;8.94;100.00;100884.72;6180676;23;20009;-76
2023/01/05 05:04:55;;;;;;;0.00;0.00;;;;;;;8.97;100.00;100878.75;6181050;23;20147;-77
2023/01/05 05:07:21;;;;;;;0.00;0.00;;;;;;;8.98;100.00;100880.41;6177225;23;20329;-78
2023/01/05 05:09:47;;;;;;;0.00;0.00;;;;;;;8.95;100.00;100880.88;6183214;23;20041;-76
2023/01/05 05:12:12;;;;;;;0.00;0.00;;;;;;;8.91;100.00;100875.09;6154087;23;20009;-75
2023/01/05 05:14:38;;;;;;;0.00;0.00;;;;;;;8.93;100.00;100870.22;6179722;23;20021;-74
2023/01/05 05:17:04;;;;;;;0.00;0.00;;;;;;;8.90;100.00;100870.72;6177828;23;20019;-76
2023/01/05 05:19:29;;;;;;;0.05;0.05;;;;;;;8.81;100.00;100875.72;6179433;23;20136;-78
2023/01/05 05:21:55;;;;;;;0.00;0.00;;;;;;;8.78;100.00;100864.50;6155197;23;20009;-76
2023/01/05 05:24:20;;;;;;;0.00;0.00;;;;;;;8.82;100.00;100866.50;6151612;23;20011;-75
2023/01/05 05:26:46;;;;;;;0.00;0.00;;;;;;;8.78;100.00;100868.03;6179343;23;20017;-76
2023/01/05 05:29:11;;;;;;;0.10;0.10;;;;;;;8.79;100.00;100877.88;6152248;23;20300;-76
2023/01/05 05:31:37;;;;;;;0.00;0.00;;;;;;;8.82;100.00;100869.22;6154310;23;20013;-75
2023/01/05 05:34:02;;;;;;;0.00;0.00;;;;;;;8.86;100.00;100864.94;6204136;23;20036;-75
2023/01/05 05:36:28;;;;;;;0.00;0.00;;;;;;;8.85;100.00;100860.53;6156682;23;20072;-77
2023/01/05 05:38:53;;;;;;;0.00;0.00;;;;;;;8.85;100.00;100866.00;6182181;23;20005;-74
2023/01/05 05:41:18;;;;;;;0.00;0.00;;;;;;;8.84;100.00;100858.88;6179226;23;20029;-74
2023/01/05 05:43:44;;;;;;;0.00;0.00;;;;;;;8.88;100.00;100870.97;6129961;23;20020;-74
2023/01/05 05:46:09;;;;;;;0.00;0.00;;;;;;;8.93;100.00;100872.13;6180258;23;20012;-74
2023/01/05 05:48:35;;;;;;;0.00;0.00;;;;;;;8.96;100.00;100872.47;6128409;23;20001;-74
2023/01/05 05:51:00;;;;;;;0.00;0.00;;;;;;;8.95;100.00;100872.72;6157005;23;20019;-74
2023/01/05 05:53:26;;;;;;;0.00;0.00;;;;;;;8.98;100.00;100881.25;6177959;23;20017;-76
2023/01/05 05:55:51;;;;;;;0.00;0.00;;;;;;;8.95;100.00;100872.72;6181206;23;20012;-76
2023/01/05 05:58:18;;;;;;;0.00;0.00;;;;;;;8.88;100.00;100865.50;6206261;23;20009;-74
2023/01/05 06:00:43;;;;;;;0.00;0.00;;;;;;;8.87;100.00;100863.03;6178344;23;20029;-74
2023/01/05 06:03:09;;;;;;;0.00;0.00;;;;;;;8.85;100.00;100863.28;6205723;23;20067;-75
2023/01/05 06:05:35;;;;;;;0.00;0.00;;;;;;;8.85;100.00;100876.09;6179876;23;20020;-75
2023/01/05 06:08:00;;;;;;;0.00;0.00;;;;;;;8.87;100.00;100869.28;6156804;23;20008;-77
2023/01/05 06:10:26;;;;;;;0.00;0.00;;;;;;;8.83;100.00;100862.66;6131070;23;20356;-76
2023/01/05 06:12:55;;;;;;;0.00;0.00;;;;;;;8.80;100.00;100857.72;6156216;23;20013;-76
2023/01/05 06:15:21;;;;;;;0.00;0.00;;;;;;;8.74;100.00;100859.50;6155850;23;20005;-76
2023/01/05 06:17:47;;;;;;;0.00;0.00;;;;;;;8.66;100.00;100864.50;6179325;23;20051;-76
2023/01/05 06:20:13;;;;;;;0.00;0.00;;;;;;;8.62;100.00;100866.09;6183188;23;20005;-76
2023/01/05 06:22:39;;;;;;;0.00;0.00;;;;;;;8.62;100.00;100871.53;6203571;23;20084;-75
2023/01/05 06:25:05;;;;;;;0.00;0.00;;;;;;;8.63;100.00;100859.56;6155306;23;20072;-76
2023/01/05 06:27:30;;;;;;;0.00;0.00;;;;;;;8.68;100.00;100863.22;6178763;23;20005;-76
2023/01/05 06:29:55;;;;;;;0.00;0.00;;;;;;;8.70;100.00;100866.53;6132251;23;20009;-77
2023/01/05 06:32:21;;;;;;;0.00;0.00;;;;;;;8.72;100.00;100860.84;6176781;23;20015;-74
2023/01/05 06:34:46;;;;;;;0.10;0.10;;;;;;;8.74;100.00;100862.22;6176369;23;20013;-73
2023/01/05 06:37:12;;;;;;;0.00;0.00;;;;;;;8.80;100.00;100868.63;6131778;23;20096;-75
2023/01/05 06:39:37;;;;;;;0.00;0.00;;;;;;;8.87;100.00;100863.84;6126947;23;20012;-74
2023/01/05 06:42:03;;;;;;;0.00;0.00;;;;;;;8.91;100.00;100859.56;6181192;23;20028;-74
2023/01/05 06:44:28;;;;;;;0.00;0.00;;;;;;;8.93;100.00;100863.94;6206096;23;20450;-74
2023/01/05 06:46:54;;;;;;;0.00;0.00;;;;;;;8.95;100.00;100864.53;6177139;23;20106;-74
2023/01/05 06:49:19;;;;;;;0.00;0.00;;;;;;;9.00;100.00;100861.91;6181686;23;20029;-76
2023/01/05 06:51:44;;;;;;;0.00;0.00;;;;;;;9.01;100.00;100861.66;6176413;23;20064;-76
2023/01/05 06:54:10;;;;;;;0.00;0.00;;;;;;;9.09;100.00;100865.88;6155514;23;20087;-75
2023/01/05 06:56:36;;;;;;;0.00;0.00;;;;;;;9.05;100.00;100864.72;6180475;23;20071;-74
2023/01/05 06:59:01;;;;;;;0.00;0.00;;;;;;;8.99;100.00;100860.25;6178489;23;20420;-76
2023/01/05 07:01:27;;;;;;;0.00;0.00;;;;;;;8.85;100.00;100846.91;6203327;23;20332;-75
2023/01/05 07:03:52;;;;;;;0.00;0.00;;;;;;;8.70;100.00;100838.44;6175048;23;20009;-74
2023/01/05 07:06:18;;;;;;;0.00;0.00;;;;;;;8.62;100.00;100847.00;6177699;23;20013;-75
2023/01/05 07:08:43;;;;;;;0.00;0.00;;;;;;;8.63;100.00;100852.22;6176644;23;20416;-74
2023/01/05 07:11:09;;;;;;;0.00;0.00;;;;;;;8.66;100.00;100834.53;6206054;23;20027;-77
2023/01/05 07:13:35;;;;;;;0.00;0.00;;;;;;;8.69;100.00;100855.88;6181980;23;20009;-78
2023/01/05 07:16:00;;;;;;;0.00;0.00;;;;;;;8.64;100.00;100842.94;6179925;23;20005;-74
2023/01/05 07:18:26;;;;;;;0.00;0.00;;;;;;;8.60;100.00;100844.53;6130139;23;20009;-75
2023/01/05 07:20:51;;;;;;;0.00;0.00;;;;;;;8.47;100.00;100832.00;6174509;23;20001;-74
2023/01/05 07:23:17;;;;;;;0.00;0.00;;;;;;;8.52;100.00;100834.81;6130635;23;20009;-78
2023/01/05 07:25:42;;;;;;;0.00;0.00;;;;;;;8.53;100.00;100841.94;6176799;23;21147;-76
2023/01/05 07:28:08;;;;;;;0.00;0.00;;;;;;;8.53;100.00;100835.66;6178976;23;20128;-74
2023/01/05 07:30:33;;;;;;;0.00;0.00;;;;;;;8.53;100.00;100830.22;6155141;23;20012;-75
2023/01/05 07:32:59;;;;;;;0.00;0.00;;;;;;;8.56;100.00;100833.25;6176216;23;20013;-75
2023/01/05 07:35:31;;;;;;;0.00;0.00;;;;;;;8.61;100.00;100834.44;6151856;23;20435;-76
2023/01/05 07:37:56;;;;;;;0.00;0.00;;;;;;;8.55;100.00;100831.59;6174847;23;20012;-75
2023/01/05 07:40:24;;;;;;;0.10;0.10;;;;;;;8.62;100.00;100838.84;6181354;23;19997;-76
2023/01/05 07:42:51;;;;;;;0.00;0.00;;;;;;;8.64;100.00;100842.13;6174807;23;20095;-75
2023/01/05 07:45:17;;;;;;;0.00;0.00;;;;;;;8.67;100.00;100847.09;6202323;23;20017;-75
2023/01/05 07:47:42;;;;;;;0.00;0.00;;;;;;;8.65;100.00;100830.16;6155108;23;20036;-75
2023/01/05 07:50:08;;;;;;;0.00;0.00;;;;;;;8.73;100.00;100846.13;6124242;23;20381;-76
2023/01/05 07:52:33;;;;;;;0.00;0.00;;;;;;;8.71;100.00;100842.81;6202604;23;20332;-75
2023/01/05 07:54:59;;;;;;;0.00;0.00;;;;;;;8.72;100.00;100841.75;6176921;23;20028;-76
2023/01/05 07:57:24;;;;;;;0.10;0.10;;;;;;;8.74;100.00;100837.69;6178521;23;20080;-74
2023/01/05 07:59:50;;;;;;;0.00;0.00;;;;;;;8.83;100.00;100840.03;6152996;23;20015;-75
2023/01/05 08:02:17;;;;;;;0.00;0.00;;;;;;;8.88;100.00;100835.50;6173968;23;20419;-75
2023/01/05 08:04:43;;;;;;;0.00;0.00;;;;;;;9.02;100.00;100848.84;6154156;23;20009;-75
2023/01/05 08:07:10;;;;;;;0.00;0.00;;;;;;;9.05;100.00;100838.28;6150185;23;20673;-74
2023/01/05 08:12:29;;;;;;;0.00;0.00;;;;;;;8.87;100.00;100822.13;6175927;23;20024;-78
2023/01/05 08:15:20;;;;;;;0.00;0.00;;;;;;;8.82;100.00;100828.31;6205892;23;20104;-77
2023/01/05 08:17:45;;;;;;;0.00;0.00;;;;;;;8.87;100.00;100831.13;6184036;23;20005;-78
2023/01/05 08:20:10;;;;;;;0.00;0.00;;;;;;;8.90;100.00;100827.91;6176939;23;20340;-78
2023/01/05 08:22:38;;;;;;;0.00;0.00;;;;;;;8.97;100.00;100825.03;6175119;23;20001;-77
2023/01/05 08:25:07;;;;;;;0.00;0.00;;;;;;;8.99;100.00;100811.13;6180004;23;20005;-77
2023/01/05 08:27:33;;;;;;;0.00;0.00;;;;;;;9.01;100.00;100819.91;6151003;23;20018;-78
2023/01/05 08:30:01;;;;;;;0.00;0.00;;;;;;;9.08;100.00;100817.84;6177989;23;20091;-77
2023/01/05 08:32:26;;;;;;;0.05;0.05;;;;;;;9.11;100.00;100830.16;6200566;23;20438;-77
2023/01/05 08:34:57;;;;;;;0.00;0.00;;;;;;;9.09;100.00;100822.22;6130013;23;20001;-78
2023/01/05 08:37:28;;;;;;;0.10;0.10;;;;;;;9.20;100.00;100834.13;6155433;23;20028;-78
2023/01/05 08:39:56;;;;;;;0.00;0.00;;;;;;;9.25;100.00;100837.78;6180135;23;20375;-78
2023/01/05 08:42:22;;;;;;;0.10;0.10;;;;;;;9.34;100.00;100840.94;6156041;23;20028;-79
2023/01/05 08:44:59;;;;;;;0.00;0.00;;;;;;;9.31;100.00;100819.59;6176680;23;20005;-82
2023/01/05 08:47:48;;;;;;;0.00;0.00;;;;;;;9.53;100.00;100860.63;6181613;23;20035;-79
2023/01/05 08:50:13;;;;;;;0.10;0.10;;;;;;;9.44;100.00;100838.38;6176325;23;20009;-78
2023/01/05 08:52:52;;;;;;;0.00;0.00;;;;;;;9.50;100.00;100855.66;6206543;23;20312;-78
2023/01/05 08:55:23;;;;;;;0.00;0.00;;;;;;;9.56;100.00;100857.41;6196499;23;20009;-81
2023/01/05 08:57:48;;;;;;;0.10;0.10;;;;;;;9.72;100.00;100858.47;6174618;23;20068;-77
2023/01/05 09:00:20;;;;;;;0.00;0.00;;;;;;;9.79;100.00;100847.38;6216795;23;20009;-79
2023/01/05 09:02:46;;;;;;;0.00;0.00;;;;;;;9.89;100.00;100850.25;6177721;23;20017;-79
2023/01/05 09:05:12;;;;;;;0.00;0.00;;;;;;;9.99;100.00;100840.53;6206459;23;20001;-78
2023/01/05 09:07:39;;;;;;;0.00;0.00;;;;;;;10.06;100.00;100838.44;6155463;23;20009;-78
2023/01/05 09:10:06;;;;;;;0.00;0.00;;;;;;;10.20;100.00;100845.19;6209304;23;20005;-79
2023/01/05 09:12:46;;;;;;;;;;;;;;;;;;;;;
2023/01/05 09:15:12;;;;;;;0.00;0.00;;;;;;;10.35;100.00;100844.59;6183158;23;20085;-77
2023/01/05 09:17:37;;;;;;;0.00;0.00;;;;;;;10.42;100.00;100833.47;6181092;23;20005;-78
2023/01/05 09:20:08;;;;;;;0.00;0.00;;;;;;;10.54;100.00;100836.94;6203186;23;19993;-78
2023/01/05 09:22:35;;;;;;;0.00;0.00;;;;;;;10.69;100.00;100843.63;6179405;23;20028;-78
2023/01/05 09:25:01;;;;;;;0.00;0.00;;;;;;;10.79;100.00;100850.06;6177159;23;20009;-78
2023/01/05 09:27:40;;;;;;;;;;;;;;;;;;;;;
2023/01/05 09:30:06;;;;;;;0.00;0.00;;;;;;;10.95;100.00;100834.63;6179513;23;20061;-78
2023/01/05 09:32:36;;;;;;;0.00;0.00;;;;;;;11.15;100.00;100846.84;6183819;23;20004;-79
2023/01/05 09:35:03;;;;;;;0.00;0.00;;;;;;;11.25;100.00;100830.50;6178591;23;20001;-78
2023/01/05 09:37:34;;;;;;;0.00;0.00;;;;;;;11.30;100.00;100827.81;6210970;23;20012;-83
2023/01/05 09:39:59;;;;;;;0.00;0.00;;;;;;;11.59;100.00;100835.69;6159112;23;20004;-83
2023/01/05 09:42:35;;;;;;;0.00;0.00;;;;;;;11.85;100.00;100831.22;6184599;23;20429;-83
2023/01/05 09:45:04;;;;;;;0.00;0.00;;;;;;;12.07;100.00;100819.31;6209681;23;20028;-84
2023/01/05 09:47:56;;;;;;;0.10;0.10;;;;;;;12.22;100.00;100838.59;6188430;23;20040;-85
2023/01/05 09:50:31;;;;;;;0.00;0.00;;;;;;;11.96;100.00;100834.88;6180365;23;20036;-84
2023/01/05 09:53:09;;;;;;;;;;;;;;;;;;;;;
2023/01/05 09:55:43;;;;;;;0.00;0.00;;;;;;;11.47;100.00;100835.88;6185174;23;20156;-82
2023/01/05 09:58:27;;;;;;;0.00;0.00;;;;;;;11.42;100.00;100851.44;6161469;23;20015;-82
2023/01/05 10:01:30;;;;;;;0.00;0.00;;;;;;;11.19;100.00;100826.06;6182373;23;20043;-83
2023/01/05 10:04:15;;;;;;;0.00;0.00;;;;;;;11.46;100.00;100847.09;6126435;23;20100;-83
2023/01/05 10:06:45;;;;;;;0.00;0.00;;;;;;;11.60;100.00;100831.06;6211600;23;20008;-83
2023/01/05 10:09:37;;;;;;;0.10;0.10;;;;;;;12.01;100.00;100859.56;6183048;23;20092;-82
2023/01/05 10:15:33;;;;;;;0.00;0.00;;;;;;;12.19;100.00;100843.75;6066295;23;20481;-84
2023/01/05 10:18:19;;;;;;;0.00;0.00;;;;;;;12.24;100.00;100824.63;6040145;23;20081;-84
2023/01/05 10:21:33;;;;;;;0.00;0.00;;;;;;;12.43;100.00;100838.69;6072923;23;20149;-84
2023/01/05 10:24:17;;;;;;;0.00;0.00;;;;;;;12.42;100.00;100830.72;6088631;23;20014;-82
2023/01/05 10:27:11;;;;;;;0.00;0.00;;;;;;;12.29;100.00;100832.84;6185110;23;20059;-84
2023/01/05 10:29:48;;;;;;;0.10;0.10;;;;;;;12.33;100.00;100855.09;6184414;23;20032;-82
2023/01/05 10:32:47;;;;;;;0.00;0.00;;;;;;;12.31;100.00;100858.09;6187875;23;20009;-84
2023/01/05 10:35:26;;;;;;;0.00;0.00;;;;;;;12.20;100.00;100857.22;6212079;23;20001;-85
2023/01/05 10:38:14;;;;;;;0.00;0.00;;;;;;;12.02;100.00;100842.03;6214343;23;20005;-82
2023/01/05 10:41:12;;;;;;;0.00;0.00;;;;;;;12.00;100.00;100860.69;6182840;23;20008;-84
2023/01/05 10:43:59;;;;;;;0.00;0.00;;;;;;;11.91;100.00;100859.47;6186395;23;20079;-84
2023/01/05 10:46:25;;;;;;;0.00;0.00;;;;;;;11.72;100.00;100850.03;6185336;23;20085;-85
2023/01/05 10:49:08;;;;;;;0.00;0.00;;;;;;;11.60;100.00;100853.78;6138584;23;20034;-82
2023/01/05 10:51:35;;;;;;;0.00;0.00;;;;;;;11.52;100.00;100844.16;6154745;23;20016;-82
2023/01/05 10:54:02;;;;;;;0.00;0.00;;;;;;;11.44;100.00;100833.66;6193545;23;20028;-83
2023/01/05 10:56:38;;;;;;;;;;;;;;;;;;;;;
2023/01/05 10:59:09;;;;;;;0.00;0.00;;;;;;;11.61;100.00;100865.56;6186870;23;20026;-83
2023/01/05 11:01:50;;;;;;;0.00;0.00;;;;;;;11.62;100.00;100868.06;6189222;23;20008;-83
2023/01/05 11:04:50;;;;;;;0.10;0.10;;;;;;;11.68;100.00;100850.56;6184461;23;20005;-82
2023/01/05 11:07:35;;;;;;;0.00;0.00;;;;;;;11.79;100.00;100851.47;6161940;23;20012;-82
2023/01/05 11:10:17;;;;;;;0.00;0.00;;;;;;;11.96;100.00;100839.53;6183660;23;20021;-78
2023/01/05 11:12:53;;;;;;;0.00;0.00;;;;;;;12.19;100.00;100841.03;6159376;23;20009;-78
2023/01/05 11:15:20;;;;;;;0.00;0.00;;;;;;;12.40;100.00;100829.06;6179111;23;20009;-78
2023/01/05 11:17:48;;;;;;;0.00;0.00;;;;;;;12.52;100.00;100830.75;6206156;23;20005;-79
2023/01/05 11:20:16;;;;;;;0.00;0.00;;;;;;;12.65;100.00;100818.44;6190788;23;20324;-78
2023/01/05 11:22:57;;;;;;;;;;;;;;;;;;;;;
2023/01/05 11:25:52;;;;;;;0.00;0.00;;;;;;;13.09;100.00;100831.69;6184322;23;20486;-79
2023/01/05 11:28:30;;;;;;;;;;;;;;;13.20;100.00;100838.84;6183154;23;20514;-78
2023/01/05 11:31:22;;;;;;;0.00;0.00;;;;;;;13.28;100.00;100837.47;6177726;23;20242;-77
2023/01/05 11:34:05;;;;;;;0.00;0.00;;;;;;;13.25;100.00;100832.53;6156274;23;20087;-78
2023/01/05 11:36:30;;;;;;;0.10;0.10;;;;;;;13.14;100.00;100809.75;6182739;23;20109;-78
2023/01/05 11:38:59;;;;;;;0.00;0.00;;;;;;;13.24;100.00;100803.41;6206934;23;20096;-77
2023/01/05 11:41:27;;;;;;;0.00;0.00;;;;;;;13.17;100.00;100800.13;6179327;23;20117;-78
2023/01/05 11:43:53;;;;;;;0.00;0.00;;;;;;;13.34;100.00;100808.09;6155532;23;20013;-80
2023/01/05 11:46:21;;;;;;;0.00;0.00;;;;;;;13.55;100.00;100808.91;6184871;23;20009;-78
2023/01/05 11:48:53;;;;;;;0.00;0.00;;;;;;;13.55;100.00;100798.78;6157028;23;20020;-78
2023/01/05 11:51:40;;;;;;;0.10;0.10;;;;;;;13.57;100.00;100795.75;6207458;23;20001;-79
2023/01/05 11:54:35;;;;;;;0.00;0.00;;;;;;;13.62;100.00;100792.97;6180459;23;20013;-79
2023/01/05 11:57:19;;;;;;;0.00;0.00;;;;;;;13.90;100.00;100804.47;6204473;23;20009;-79
2023/01/05 11:59:45;;;;;;;0.00;0.00;;;;;;;13.95;100.00;100787.97;6207260;23;20320;-77
2023/01/05 12:02:49;;;;;;;;;;;;;;;;;;;;;
2023/01/05 12:05:43;;;;;;;0.00;0.00;;;;;;;13.95;100.00;100790.72;6181386;23;20069;-78
2023/01/05 12:08:26;;;;;;;;;;;;;;;;;;;;;
2023/01/05 12:11:18;;;;;;;0.00;0.00;;;;;;;14.01;100.00;100783.28;6183196;23;20085;-78
2023/01/05 12:14:23;;;;;;;0.10;0.10;;;;;;;13.89;100.00;100780.84;6208981;23;20250;-78
2023/01/05 12:16:52;;;;;;;;;;;;;;;13.72;100.00;100778.41;6191576;23;20000;-79
2023/01/05 12:19:36;;;;;;;0.00;0.00;;;;;;;13.73;100.00;100772.63;6206608;23;19904;-79
2023/01/05 12:22:32;;;;;;;0.00;0.00;;;;;;;13.72;100.00;100776.47;6187636;23;20028;-78
2023/01/05 12:25:41;;;;;;;0.00;0.00;;;;;;;13.64;100.00;100768.81;6183498;23;20009;-79